Buttonwillow, California
Current Conditions -  °F | °C
As of 7:54 AM on Saturday 25 Oct 2014 (Local Time) from KBFL Reporting Station
Clear Clear  
Wind Chill: 62°   Ceiling: Unl
Heat Index: 62°   Visibility: 10mi
Dew Point: 44°   Wind: 6mph
Humidity: 52%   Direction: 350°N
Pressure: 30.03"   Gusts: NA
Location:  35.4°N, 119.47°W
Report Text: KBFL 251454Z 35005KT 10SM CLR 17/07 A3003 RMK AO2 SLP165 T01670067 51024
Loading
Personal Weather Stations






























Interactive Weather Map
Tropical Storm Tracking
New forecast layout! Learn more

10-Day Weather Forecast

Advertisements
Track Severe Weather on mobile